Time;durP1;ratioP1;P1;durP2;ratioP2;P2;SDS_P1;SDS_P2;PMS_P1;PMS_P2;Temp;Humidity;BMP_temperature;BMP_pressure;BME280_temperature;BME280_humidity;BME280_pressure;Samples;Min_cycle;Max_cycle;Signal;HPM_P1;HPM_P2
2023/03/07 00:00:37;;;;;;;16.43;6.67;;;;;;;;;;5012540;28;20428;-64
2023/03/07 00:03:03;;;;;;;10.00;3.93;;;;;;;;;;5027515;28;20053;-64
2023/03/07 00:05:30;;;;;;;7.43;4.23;;;;;;;;;;5027323;27;20540;-64
2023/03/07 00:07:57;;;;;;;10.03;4.43;;;;;;;;;;5027115;28;20054;-64
2023/03/07 00:10:23;;;;;;;11.07;4.40;;;;;;;;;;5026617;28;20092;-64
2023/03/07 00:12:49;;;;;;;13.30;4.50;;;;;;;;;;5027446;27;20042;-64
2023/03/07 00:15:18;;;;;;;14.97;4.90;;;;;;;;;;5026661;28;20505;-64
2023/03/07 00:17:45;;;;;;;9.73;4.47;;;;;;;;;;5027251;28;20029;-64
2023/03/07 00:20:13;;;;;;;13.47;5.03;;;;;;;;;;5026852;27;20520;-64
2023/03/07 00:22:40;;;;;;;8.00;3.60;;;;;;;;;;5027189;28;20058;-64
2023/03/07 00:25:06;;;;;;;7.63;3.63;;;;;;;;;;5026690;28;20048;-64
2023/03/07 00:27:33;;;;;;;8.30;3.43;;;;;;;;;;5026659;28;20058;-64
2023/03/07 00:29:59;;;;;;;12.13;3.93;;;;;;;;;;5026433;28;20524;-64
2023/03/07 00:32:25;;;;;;;7.57;3.20;;;;;;;;;;5026889;28;20057;-64
2023/03/07 00:34:52;;;;;;;7.47;3.67;;;;;;;;;;5025894;28;20102;-64
2023/03/07 00:37:18;;;;;;;11.90;3.60;;;;;;;;;;5026575;28;20090;-64
2023/03/07 00:39:44;;;;;;;6.13;2.80;;;;;;;;;;5095039;28;20054;-64
2023/03/07 00:42:10;;;;;;;7.73;2.90;;;;;;;;;;5026722;28;20061;-64
2023/03/07 00:44:36;;;;;;;9.30;2.90;;;;;;;;;;5026770;28;20053;-64
2023/03/07 00:47:02;;;;;;;5.27;2.47;;;;;;;;;;5095178;28;20102;-64
2023/03/07 00:49:29;;;;;;;5.40;2.00;;;;;;;;;;5095087;28;20452;-64
2023/03/07 00:51:55;;;;;;;6.50;2.00;;;;;;;;;;5026631;28;20144;-64
2023/03/07 00:54:21;;;;;;;7.27;2.20;;;;;;;;;;5026325;28;20052;-64
2023/03/07 00:56:47;;;;;;;8.90;2.90;;;;;;;;;;5018162;27;20050;-64
2023/03/07 00:59:14;;;;;;;8.47;2.60;;;;;;;;;;5025681;28;20047;-64
2023/03/07 01:01:40;;;;;;;8.77;2.60;;;;;;;;;;5026735;28;20049;-64
2023/03/07 01:04:07;;;;;;;8.43;2.50;;;;;;;;;;5026347;28;20049;-63
2023/03/07 01:06:33;;;;;;;8.63;2.87;;;;;;;;;;5026777;28;20056;-64
2023/03/07 01:09:00;;;;;;;8.37;2.30;;;;;;;;;;5026584;28;20124;-63
2023/03/07 01:11:28;;;;;;;6.83;2.17;;;;;;;;;;5025540;28;20045;-63
2023/03/07 01:13:57;;;;;;;10.00;2.00;;;;;;;;;;5026781;28;20045;-64
2023/03/07 01:16:25;;;;;;;6.50;1.67;;;;;;;;;;5026374;28;20182;-63
2023/03/07 01:18:52;;;;;;;4.83;1.77;;;;;;;;;;5016534;28;20079;-64
2023/03/07 01:21:23;;;;;;;6.93;1.90;;;;;;;;;;5006265;28;20053;-63
2023/03/07 01:23:49;;;;;;;5.10;1.67;;;;;;;;;;5006470;28;20513;-63
2023/03/07 01:26:19;;;;;;;13.03;3.17;;;;;;;;;;5006680;28;20195;-63
2023/03/07 01:28:46;;;;;;;6.73;1.33;;;;;;;;;;5007021;28;20088;-64
2023/03/07 01:31:12;;;;;;;6.77;1.60;;;;;;;;;;5006786;28;20054;-63
2023/03/07 01:33:38;;;;;;;4.77;1.50;;;;;;;;;;5006229;28;20056;-63
2023/03/07 01:36:05;;;;;;;6.43;1.40;;;;;;;;;;5007955;28;20087;-63
2023/03/07 01:38:33;;;;;;;6.93;1.60;;;;;;;;;;5093979;28;20048;-63
2023/03/07 01:41:01;;;;;;;8.33;1.73;;;;;;;;;;5026023;28;20049;-63
2023/03/07 01:43:29;;;;;;;7.60;1.60;;;;;;;;;;5026371;28;20050;-63
2023/03/07 01:46:21;;;;;;;7.67;2.40;;;;;;;;;;5026387;28;20110;-63
2023/03/07 01:49:06;;;;;;;5.10;1.83;;;;;;;;;;5025852;28;20060;-63
2023/03/07 01:51:33;;;;;;;8.93;2.57;;;;;;;;;;5027477;28;20052;-63
2023/03/07 01:54:00;;;;;;;5.40;2.43;;;;;;;;;;5028311;28;20049;-63
2023/03/07 01:56:27;;;;;;;9.87;2.57;;;;;;;;;;5029487;28;20077;-63
2023/03/07 01:58:53;;;;;;;9.30;2.57;;;;;;;;;;5028338;28;20037;-63
2023/03/07 02:01:20;;;;;;;7.63;2.90;;;;;;;;;;5009784;28;20049;-63
2023/03/07 02:03:49;;;;;;;7.53;2.30;;;;;;;;;;5009241;28;20129;-63
2023/03/07 02:06:15;;;;;;;8.70;2.40;;;;;;;;;;5009464;28;20057;-63
2023/03/07 02:08:41;;;;;;;8.70;2.30;;;;;;;;;;5009790;28;20097;-64
2023/03/07 02:11:08;;;;;;;6.90;2.83;;;;;;;;;;5009727;28;20098;-63
2023/03/07 02:13:34;;;;;;;8.10;2.23;;;;;;;;;;5008983;28;20046;-63
2023/03/07 02:16:01;;;;;;;14.77;3.00;;;;;;;;;;5012634;28;20046;-63
2023/03/07 02:18:29;;;;;;;11.70;2.27;;;;;;;;;;5009068;28;20057;-63
2023/03/07 02:21:01;;;;;;;12.10;2.63;;;;;;;;;;5008836;28;20061;-64
2023/03/07 02:23:27;;;;;;;12.20;2.03;;;;;;;;;;5009369;28;20061;-64
2023/03/07 02:26:00;;;;;;;11.73;2.53;;;;;;;;;;5009064;28;21529;-64
2023/03/07 02:28:28;;;;;;;6.27;1.73;;;;;;;;;;5009080;28;20118;-63
2023/03/07 02:30:59;;;;;;;14.20;2.43;;;;;;;;;;5009345;28;20061;-63
2023/03/07 02:33:25;;;;;;;9.53;1.93;;;;;;;;;;5008634;28;20048;-64
2023/03/07 02:35:55;;;;;;;8.73;2.30;;;;;;;;;;5019256;28;20828;-64
2023/03/07 02:38:22;;;;;;;9.27;2.20;;;;;;;;;;5028535;28;20052;-64
2023/03/07 02:40:48;;;;;;;11.03;1.97;;;;;;;;;;5028950;28;20048;-64
2023/03/07 02:43:14;;;;;;;8.80;2.20;;;;;;;;;;5028521;28;20037;-64
2023/03/07 02:45:40;;;;;;;17.27;2.63;;;;;;;;;;5028794;28;20045;-64
2023/03/07 02:48:06;;;;;;;10.97;2.50;;;;;;;;;;5097613;28;20049;-64
2023/03/07 02:50:34;;;;;;;10.77;2.33;;;;;;;;;;5028143;28;20050;-65
2023/03/07 02:53:00;;;;;;;7.70;1.80;;;;;;;;;;5020902;28;20101;-64
2023/03/07 02:55:26;;;;;;;14.40;2.37;;;;;;;;;;5008541;28;20041;-64
2023/03/07 02:57:52;;;;;;;7.87;1.77;;;;;;;;;;5076563;28;20054;-64
2023/03/07 03:00:19;;;;;;;11.10;3.20;;;;;;;;;;5008872;28;20058;-62
2023/03/07 03:02:45;;;;;;;7.17;1.83;;;;;;;;;;5007798;28;20505;-62
2023/03/07 03:05:11;;;;;;;9.73;2.20;;;;;;;;;;5077278;28;20046;-64
2023/03/07 03:07:37;;;;;;;11.10;2.70;;;;;;;;;;5008406;28;20048;-64
2023/03/07 03:10:04;;;;;;;15.07;2.63;;;;;;;;;;5023677;28;20501;-64
2023/03/07 03:12:30;;;;;;;5.70;1.80;;;;;;;;;;5008101;28;20053;-65
2023/03/07 03:14:56;;;;;;;18.80;4.00;;;;;;;;;;5008803;28;20406;-65
2023/03/07 03:17:22;;;;;;;8.67;1.80;;;;;;;;;;5007980;28;20046;-65
2023/03/07 03:19:48;;;;;;;8.73;2.17;;;;;;;;;;5008647;28;20049;-64
2023/03/07 03:22:14;;;;;;;21.57;2.30;;;;;;;;;;5008095;28;20061;-64
2023/03/07 03:24:41;;;;;;;13.47;3.00;;;;;;;;;;5024616;28;20497;-65
2023/03/07 03:27:07;;;;;;;10.90;2.87;;;;;;;;;;5028097;28;20489;-62
2023/03/07 03:29:33;;;;;;;16.80;1.70;;;;;;;;;;5014714;28;20516;-62
2023/03/07 03:32:00;;;;;;;12.10;2.10;;;;;;;;;;5008498;28;20308;-62
2023/03/07 03:34:26;;;;;;;7.67;1.83;;;;;;;;;;5007938;28;20050;-62
2023/03/07 03:36:52;;;;;;;17.43;3.10;;;;;;;;;;5076229;28;20045;-62
2023/03/07 03:39:18;;;;;;;15.27;2.13;;;;;;;;;;5008239;28;20082;-62
2023/03/07 03:41:44;;;;;;;19.67;2.17;;;;;;;;;;5008135;28;20497;-62
2023/03/07 03:44:10;;;;;;;17.80;3.00;;;;;;;;;;5008226;28;20507;-62
2023/03/07 03:46:37;;;;;;;21.67;2.63;;;;;;;;;;5007627;28;20042;-62
2023/03/07 03:49:03;;;;;;;18.23;3.50;;;;;;;;;;5010887;28;20056;-62
2023/03/07 03:51:29;;;;;;;10.20;1.70;;;;;;;;;;5027628;28;20056;-62
2023/03/07 03:53:58;;;;;;;16.63;2.40;;;;;;;;;;5027832;28;20052;-62
2023/03/07 03:56:25;;;;;;;14.60;2.40;;;;;;;;;;5027426;28;20420;-62
2023/03/07 03:58:53;;;;;;;16.67;1.80;;;;;;;;;;5012504;28;20044;-62
2023/03/07 04:01:20;;;;;;;15.63;1.60;;;;;;;;;;5025651;28;20386;-62
2023/03/07 04:03:47;;;;;;;22.80;5.63;;;;;;;;;;5015862;28;20128;-62
2023/03/07 04:06:15;;;;;;;19.63;3.37;;;;;;;;;;5007409;28;20042;-62
2023/03/07 04:08:42;;;;;;;17.47;2.40;;;;;;;;;;5007859;28;20410;-62
2023/03/07 04:11:08;;;;;;;20.67;2.93;;;;;;;;;;5011190;28;20095;-62
2023/03/07 04:13:34;;;;;;;17.63;1.77;;;;;;;;;;5026948;28;20049;-62
2023/03/07 04:16:01;;;;;;;13.33;2.30;;;;;;;;;;5027335;28;20056;-62
2023/03/07 04:18:27;;;;;;;9.03;1.77;;;;;;;;;;5095730;28;20042;-62
2023/03/07 04:20:53;;;;;;;11.53;2.03;;;;;;;;;;5026712;28;20585;-62
2023/03/07 04:23:20;;;;;;;10.23;1.50;;;;;;;;;;5027370;28;20049;-62
2023/03/07 04:25:56;;;;;;;16.23;1.40;;;;;;;;;;5027235;28;20041;-65
2023/03/07 04:28:23;;;;;;;12.97;1.73;;;;;;;;;;5023625;28;20504;-65
2023/03/07 04:30:51;;;;;;;14.70;1.70;;;;;;;;;;5007494;28;20061;-64
2023/03/07 04:33:17;;;;;;;6.87;1.80;;;;;;;;;;5007431;28;20092;-65
2023/03/07 04:35:44;;;;;;;8.90;1.57;;;;;;;;;;5012935;28;20045;-65
2023/03/07 04:38:11;;;;;;;13.00;2.13;;;;;;;;;;5026845;28;20049;-65
2023/03/07 04:40:37;;;;;;;9.50;2.00;;;;;;;;;;5026840;28;20792;-65
2023/03/07 04:43:04;;;;;;;11.23;1.50;;;;;;;;;;5094908;28;20056;-65
2023/03/07 04:45:31;;;;;;;17.07;1.90;;;;;;;;;;5009204;28;20072;-65
2023/03/07 04:47:57;;;;;;;9.73;1.30;;;;;;;;;;5007121;28;20049;-65
2023/03/07 04:50:24;;;;;;;12.07;2.03;;;;;;;;;;5007100;28;20042;-64
2023/03/07 04:52:50;;;;;;;15.77;2.00;;;;;;;;;;5007142;28;20060;-64
2023/03/07 04:55:16;;;;;;;7.17;1.33;;;;;;;;;;5006764;28;20469;-65
2023/03/07 04:57:42;;;;;;;9.87;1.90;;;;;;;;;;5006863;28;20041;-65
2023/03/07 05:00:09;;;;;;;11.73;1.50;;;;;;;;;;5007001;28;20042;-65
2023/03/07 05:02:35;;;;;;;9.10;1.77;;;;;;;;;;5006224;28;20778;-65
2023/03/07 05:05:01;;;;;;;14.17;1.70;;;;;;;;;;5006577;28;20053;-62
2023/03/07 05:07:28;;;;;;;10.27;1.57;;;;;;;;;;5006732;28;20056;-62
2023/03/07 05:09:55;;;;;;;12.97;1.43;;;;;;;;;;5006634;28;20672;-62
2023/03/07 05:12:22;;;;;;;13.40;1.83;;;;;;;;;;5006743;28;20050;-62
2023/03/07 05:14:48;;;;;;;42.40;4.03;;;;;;;;;;5009631;28;20194;-62
2023/03/07 05:17:14;;;;;;;12.63;1.80;;;;;;;;;;5006821;28;20049;-65
2023/03/07 05:19:40;;;;;;;11.53;1.73;;;;;;;;;;5006082;28;20165;-64
2023/03/07 05:22:06;;;;;;;13.80;1.63;;;;;;;;;;5006563;28;20181;-64
2023/03/07 05:24:33;;;;;;;20.47;2.33;;;;;;;;;;5006613;28;20052;-63
2023/03/07 05:26:59;;;;;;;10.53;2.00;;;;;;;;;;5073459;28;20057;-63
2023/03/07 05:29:25;;;;;;;10.97;2.70;;;;;;;;;;5012118;28;20095;-63
2023/03/07 05:31:51;;;;;;;11.70;1.60;;;;;;;;;;5021872;28;20148;-63
2023/03/07 05:34:17;;;;;;;19.93;2.40;;;;;;;;;;5011846;28;20046;-63
2023/03/07 05:36:43;;;;;;;12.20;1.47;;;;;;;;;;5006201;28;20046;-64
2023/03/07 05:39:09;;;;;;;12.00;1.57;;;;;;;;;;5006180;28;20050;-63
2023/03/07 05:41:39;;;;;;;19.53;2.80;;;;;;;;;;5006324;28;20050;-64
2023/03/07 05:44:05;;;;;;;12.93;2.00;;;;;;;;;;5073937;28;20049;-60
2023/03/07 05:46:31;;;;;;;9.27;1.57;;;;;;;;;;5005938;28;20050;-63
2023/03/07 05:48:57;;;;;;;17.07;2.67;;;;;;;;;;5017903;28;20057;-63
2023/03/07 05:51:23;;;;;;;16.20;3.33;;;;;;;;;;5024690;28;20049;-63
2023/03/07 05:53:49;;;;;;;19.57;3.43;;;;;;;;;;5025521;28;20049;-63
2023/03/07 05:56:15;;;;;;;13.07;2.20;;;;;;;;;;5025651;28;20129;-63
2023/03/07 05:58:41;;;;;;;8.97;1.90;;;;;;;;;;5010114;28;20061;-63
2023/03/07 06:01:07;;;;;;;7.03;1.77;;;;;;;;;;5005453;28;20058;-63
2023/03/07 06:03:33;;;;;;;9.93;1.80;;;;;;;;;;5071551;28;20101;-63
2023/03/07 06:06:00;;;;;;;17.53;2.30;;;;;;;;;;5004304;28;20516;-63
2023/03/07 06:08:26;;;;;;;8.37;1.23;;;;;;;;;;5004236;28;20141;-63
2023/03/07 06:10:53;;;;;;;10.77;1.70;;;;;;;;;;5004114;28;20061;-63
2023/03/07 06:13:20;;;;;;;16.40;3.10;;;;;;;;;;5003990;28;20462;-63
2023/03/07 06:15:50;;;;;;;11.53;1.40;;;;;;;;;;5004416;28;20072;-63
2023/03/07 06:18:16;;;;;;;13.83;2.47;;;;;;;;;;5005801;28;20093;-63
2023/03/07 06:20:42;;;;;;;10.03;1.90;;;;;;;;;;5073451;28;20485;-63
2023/03/07 06:23:08;;;;;;;10.30;2.17;;;;;;;;;;5073429;28;20580;-63
2023/03/07 06:25:34;;;;;;;10.10;2.43;;;;;;;;;;5019663;28;20095;-63
2023/03/07 06:28:00;;;;;;;9.93;1.40;;;;;;;;;;5023926;28;20052;-63
2023/03/07 06:30:27;;;;;;;8.80;2.37;;;;;;;;;;5005856;28;20053;-63
2023/03/07 06:32:53;;;;;;;11.50;2.03;;;;;;;;;;5005787;28;20497;-63
2023/03/07 06:35:19;;;;;;;15.27;1.93;;;;;;;;;;5004922;28;20049;-63
2023/03/07 06:37:45;;;;;;;8.40;1.40;;;;;;;;;;5006715;28;20654;-63
2023/03/07 06:40:12;;;;;;;22.87;2.60;;;;;;;;;;5009047;28;20042;-63
2023/03/07 06:42:38;;;;;;;9.93;1.60;;;;;;;;;;5008590;28;20126;-63
2023/03/07 06:45:05;;;;;;;14.87;1.87;;;;;;;;;;5008538;28;20046;-63
2023/03/07 06:47:31;;;;;;;11.70;1.40;;;;;;;;;;5080273;28;20050;-63
2023/03/07 06:49:57;;;;;;;14.17;2.37;;;;;;;;;;5028437;28;20045;-63
2023/03/07 06:52:23;;;;;;;12.60;1.60;;;;;;;;;;5028248;28;20057;-64
2023/03/07 06:54:49;;;;;;;5.43;0.77;;;;;;;;;;5028330;28;20053;-64
2023/03/07 06:57:15;;;;;;;5.97;1.30;;;;;;;;;;5019047;28;20041;-64
2023/03/07 06:59:41;;;;;;;7.67;0.83;;;;;;;;;;5028047;28;20710;-64
2023/03/07 07:02:10;;;;;;;5.43;1.23;;;;;;;;;;5028384;28;20085;-63
2023/03/07 07:04:36;;;;;;;8.83;0.90;;;;;;;;;;5028430;28;20060;-64
2023/03/07 07:07:02;;;;;;;5.83;0.90;;;;;;;;;;5020273;28;20057;-63
2023/03/07 07:09:28;;;;;;;9.70;1.00;;;;;;;;;;5014741;28;20038;-63
2023/03/07 07:11:54;;;;;;;7.00;1.33;;;;;;;;;;5086351;28;20646;-64
2023/03/07 07:14:20;;;;;;;4.97;0.90;;;;;;;;;;5016209;28;20498;-63
2023/03/07 07:16:47;;;;;;;5.50;1.20;;;;;;;;;;5016789;28;20053;-63
2023/03/07 07:19:13;;;;;;;5.33;0.77;;;;;;;;;;5017953;28;20745;-63
2023/03/07 07:21:39;;;;;;;4.97;1.00;;;;;;;;;;5013607;28;20085;-63
2023/03/07 07:24:05;;;;;;;5.67;0.67;;;;;;;;;;5017651;28;20481;-63
2023/03/07 07:26:31;;;;;;;9.63;2.47;;;;;;;;;;5018134;28;20042;-64
2023/03/07 07:28:57;;;;;;;7.00;1.20;;;;;;;;;;5015141;28;20081;-63
2023/03/07 07:31:23;;;;;;;8.93;1.10;;;;;;;;;;5014773;28;20053;-63
2023/03/07 07:33:50;;;;;;;10.80;1.93;;;;;;;;;;5016545;28;20053;-63
2023/03/07 07:36:16;;;;;;;9.67;1.80;;;;;;;;;;5076950;28;20042;-64
2023/03/07 07:38:42;;;;;;;8.57;1.70;;;;;;;;;;5075637;28;20073;-64
2023/03/07 07:41:08;;;;;;;12.60;2.60;;;;;;;;;;5016505;28;20054;-64
2023/03/07 07:43:34;;;;;;;12.27;1.87;;;;;;;;;;5012980;28;20053;-64
2023/03/07 07:46:02;;;;;;;12.27;1.60;;;;;;;;;;5016601;28;20041;-65
2023/03/07 07:48:28;;;;;;;21.23;3.67;;;;;;;;;;5007834;28;20576;-65
2023/03/07 07:50:54;;;;;;;16.00;2.17;;;;;;;;;;5007571;28;20045;-64
2023/03/07 07:53:20;;;;;;;21.13;3.77;;;;;;;;;;5006938;28;20050;-64
2023/03/07 07:55:47;;;;;;;16.77;2.77;;;;;;;;;;5008248;28;20169;-63
2023/03/07 07:58:13;;;;;;;15.60;1.73;;;;;;;;;;5007212;28;20136;-64
2023/03/07 08:00:39;;;;;;;10.10;1.47;;;;;;;;;;5075273;28;20132;-64
2023/03/07 08:03:05;;;;;;;14.13;2.13;;;;;;;;;;5007155;28;20057;-63
2023/03/07 08:05:32;;;;;;;14.40;2.63;;;;;;;;;;5008063;28;20851;-63
2023/03/07 08:07:58;;;;;;;8.07;1.53;;;;;;;;;;5016437;28;20045;-63
2023/03/07 08:10:24;;;;;;;8.30;1.70;;;;;;;;;;5026884;28;20042;-62
2023/03/07 08:12:50;;;;;;;13.43;2.10;;;;;;;;;;5009273;28;20071;-62
2023/03/07 08:15:16;;;;;;;21.03;2.90;;;;;;;;;;5007154;28;20060;-62
2023/03/07 08:17:43;;;;;;;8.83;1.47;;;;;;;;;;5014889;28;20232;-62
2023/03/07 08:20:10;;;;;;;16.57;2.00;;;;;;;;;;5010469;28;20053;-62
2023/03/07 08:22:37;;;;;;;12.97;2.30;;;;;;;;;;5008767;28;20046;-62
2023/03/07 08:25:06;;;;;;;15.13;1.93;;;;;;;;;;5094987;28;20470;-62
2023/03/07 08:27:32;;;;;;;9.97;1.60;;;;;;;;;;5026681;28;20045;-62
2023/03/07 08:29:59;;;;;;;17.40;1.90;;;;;;;;;;5026265;28;20297;-62
2023/03/07 08:32:26;;;;;;;14.50;2.80;;;;;;;;;;5024290;28;20061;-62
2023/03/07 08:34:52;;;;;;;13.17;1.67;;;;;;;;;;5044919;27;20103;-62
2023/03/07 08:37:18;;;;;;;10.60;2.47;;;;;;;;;;5021703;28;20405;-63
2023/03/07 08:39:44;;;;;;;10.63;1.67;;;;;;;;;;5016329;28;20042;-63
2023/03/07 08:42:10;;;;;;;6.53;1.50;;;;;;;;;;5015090;28;20222;-63
2023/03/07 08:44:36;;;;;;;9.80;1.93;;;;;;;;;;5020321;28;20132;-63
2023/03/07 08:47:02;;;;;;;6.53;1.50;;;;;;;;;;5006523;28;20049;-63
2023/03/07 08:49:28;;;;;;;12.00;1.77;;;;;;;;;;5012029;28;20034;-65
2023/03/07 08:51:54;;;;;;;9.17;1.80;;;;;;;;;;5012587;28;20045;-63
2023/03/07 08:54:20;;;;;;;10.40;1.83;;;;;;;;;;5017121;28;20034;-63
2023/03/07 08:56:46;;;;;;;10.87;1.83;;;;;;;;;;5011727;28;20053;-63
2023/03/07 08:59:12;;;;;;;10.00;2.20;;;;;;;;;;5011427;28;20069;-64
2023/03/07 09:01:38;;;;;;;9.27;1.97;;;;;;;;;;5009739;28;20046;-63
2023/03/07 09:04:04;;;;;;;13.63;2.00;;;;;;;;;;5017056;28;20069;-62
2023/03/07 09:06:30;;;;;;;12.27;2.23;;;;;;;;;;5013575;28;20424;-63
2023/03/07 09:08:56;;;;;;;11.63;1.93;;;;;;;;;;5009600;28;20049;-63
2023/03/07 09:11:23;;;;;;;7.77;1.67;;;;;;;;;;5029671;27;20041;-63
2023/03/07 09:13:49;;;;;;;12.63;1.70;;;;;;;;;;5014101;28;20891;-63
2023/03/07 09:16:15;;;;;;;10.70;1.50;;;;;;;;;;5014844;28;20049;-63
2023/03/07 09:18:41;;;;;;;12.20;2.43;;;;;;;;;;5085359;28;20489;-64
2023/03/07 09:21:07;;;;;;;10.00;1.67;;;;;;;;;;5014054;28;20044;-63
2023/03/07 09:23:33;;;;;;;19.40;2.83;;;;;;;;;;5019969;28;20033;-64
2023/03/07 09:25:59;;;;;;;17.60;2.20;;;;;;;;;;5016030;28;20046;-63
2023/03/07 09:28:26;;;;;;;16.70;1.80;;;;;;;;;;5013874;28;20034;-64
2023/03/07 09:30:52;;;;;;;12.47;1.93;;;;;;;;;;5012576;28;20064;-63
2023/03/07 09:33:18;;;;;;;18.70;2.00;;;;;;;;;;5011943;28;20126;-63
2023/03/07 09:35:44;;;;;;;10.57;1.60;;;;;;;;;;5014439;28;20075;-63
2023/03/07 09:38:10;;;;;;;11.63;2.20;;;;;;;;;;5013654;28;20446;-63
2023/03/07 09:40:37;;;;;;;6.97;1.50;;;;;;;;;;5010512;28;20182;-63
2023/03/07 09:43:09;;;;;;;12.20;2.03;;;;;;;;;;5073184;28;20133;-63
2023/03/07 09:45:42;;;;;;;11.27;3.77;;;;;;;;;;5005692;28;20056;-64
2023/03/07 09:48:08;;;;;;;14.47;2.53;;;;;;;;;;5006191;28;20048;-63
2023/03/07 09:50:53;;;;;;;17.67;2.50;;;;;;;;;;5025648;28;20049;-63
2023/03/07 09:53:24;;;;;;;11.90;1.70;;;;;;;;;;5021373;28;20133;-64
2023/03/07 09:55:51;;;;;;;16.37;2.23;;;;;;;;;;5025795;28;20492;-63
2023/03/07 09:58:21;;;;;;;11.33;2.77;;;;;;;;;;5093333;28;20077;-63
2023/03/07 10:00:47;;;;;;;10.50;2.80;;;;;;;;;;5018886;28;20128;-64
2023/03/07 10:03:15;;;;;;;14.67;2.63;;;;;;;;;;5025480;28;20048;-63
2023/03/07 10:05:43;;;;;;;14.20;3.07;;;;;;;;;;5025397;28;20141;-63
2023/03/07 10:08:13;;;;;;;16.47;2.17;;;;;;;;;;5025499;28;20049;-63
2023/03/07 10:10:41;;;;;;;12.97;2.70;;;;;;;;;;5093741;28;20140;-64
2023/03/07 10:13:10;;;;;;;10.73;2.30;;;;;;;;;;5008144;28;20046;-64
2023/03/07 10:15:46;;;;;;;7.47;2.30;;;;;;;;;;5009468;28;20034;-63
2023/03/07 10:18:31;;;;;;;14.00;3.83;;;;;;;;;;5008523;28;20042;-64
2023/03/07 10:21:16;;;;;;;13.37;3.70;;;;;;;;;;5008663;28;20528;-63
2023/03/07 10:24:01;;;;;;;14.67;3.50;;;;;;;;;;5008190;28;20077;-63
2023/03/07 10:26:27;;;;;;;9.43;2.93;;;;;;;;;;5016023;28;20046;-63
2023/03/07 10:28:53;;;;;;;11.20;2.90;;;;;;;;;;5008512;28;20061;-63
2023/03/07 10:31:30;;;;;;;5.73;1.83;;;;;;;;;;5008282;28;20062;-63
2023/03/07 10:33:56;;;;;;;8.43;1.60;;;;;;;;;;5008572;28;20132;-63
2023/03/07 10:36:28;;;;;;;9.00;1.60;;;;;;;;;;5008741;28;20493;-63
2023/03/07 10:38:59;;;;;;;9.68;1.63;;;;;;;;;;5008707;28;20413;-63
2023/03/07 10:41:26;;;;;;;5.47;1.10;;;;;;;;;;5009062;28;20054;-63
2023/03/07 10:43:53;;;;;;;6.30;1.00;;;;;;;;;;5009188;28;20045;-64
2023/03/07 10:46:21;;;;;;;6.30;1.20;;;;;;;;;;5009634;28;20045;-63
2023/03/07 10:48:53;;;;;;;2.97;1.23;;;;;;;;;;5009096;28;20042;-63
2023/03/07 10:51:34;;;;;;;3.00;0.97;;;;;;;;;;5007720;28;20049;-63
2023/03/07 10:54:00;;;;;;;7.60;1.13;;;;;;;;;;5008216;28;20054;-63
2023/03/07 10:56:27;;;;;;;6.43;1.33;;;;;;;;;;5008173;28;20048;-63
2023/03/07 10:59:09;;;;;;;7.63;2.30;;;;;;;;;;5077128;28;20390;-63
2023/03/07 11:01:37;;;;;;;7.70;1.73;;;;;;;;;;5017783;28;20038;-63
2023/03/07 11:04:07;;;;;;;9.57;1.87;;;;;;;;;;5023248;28;20308;-63
2023/03/07 11:06:34;;;;;;;11.33;3.20;;;;;;;;;;5016511;28;20046;-63
2023/03/07 11:09:09;;;;;;;5.57;1.87;;;;;;;;;;5008447;28;20087;-63
2023/03/07 11:11:36;;;;;;;9.73;1.73;;;;;;;;;;5027640;27;20085;-63
2023/03/07 11:14:10;;;;;;;10.67;2.33;;;;;;;;;;5016783;28;20046;-62
2023/03/07 11:16:40;;;;;;;9.15;2.30;;;;;;;;;;5087294;28;20046;-63
2023/03/07 11:19:25;;;;;;;7.33;2.93;;;;;;;;;;5017023;28;20084;-63
2023/03/07 11:21:53;;;;;;;7.20;2.70;;;;;;;;;;5019648;28;20597;-62
2023/03/07 11:24:26;;;;;;;13.07;4.30;;;;;;;;;;5006082;28;20045;-63
2023/03/07 11:26:59;;;;;;;10.38;3.95;;;;;;;;;;5011580;28;20587;-62
2023/03/07 11:29:27;;;;;;;15.43;4.40;;;;;;;;;;5011286;28;20524;-62
2023/03/07 11:32:03;;;;;;;8.87;3.10;;;;;;;;;;5008764;28;20099;-63
2023/03/07 11:34:48;;;;;;;11.73;2.90;;;;;;;;;;5022771;28;20518;-63
2023/03/07 11:37:23;;;;;;;7.57;2.23;;;;;;;;;;5023239;28;20049;-63
2023/03/07 11:40:07;;;;;;;8.70;2.37;;;;;;;;;;5006051;28;20042;-62
2023/03/07 11:42:36;;;;;;;8.63;1.90;;;;;;;;;;5084282;28;20425;-63
2023/03/07 11:45:21;;;;;;;6.10;1.50;;;;;;;;;;5014299;28;20038;-63
2023/03/07 11:47:54;;;;;;;5.70;2.23;;;;;;;;;;5006361;28;20639;-63
2023/03/07 11:50:25;;;;;;;12.80;2.50;;;;;;;;;;5082020;28;20040;-63
2023/03/07 11:53:00;;;;;;;8.40;2.40;;;;;;;;;;5006632;28;20734;-63
2023/03/07 11:55:31;;;;;;;12.10;3.13;;;;;;;;;;5005767;28;20095;-62
2023/03/07 11:58:07;;;;;;;10.17;1.97;;;;;;;;;;5014962;28;20073;-63
2023/03/07 12:00:36;;;;;;;7.83;1.93;;;;;;;;;;5014591;28;20115;-62
2023/03/07 12:03:14;;;;;;;7.60;1.60;;;;;;;;;;5016732;28;20049;-62
2023/03/07 12:05:48;;;;;;;4.13;1.30;;;;;;;;;;5013116;28;20049;-63
2023/03/07 12:08:20;;;;;;;8.90;1.10;;;;;;;;;;5014570;28;20038;-63
2023/03/07 12:10:59;;;;;;;4.63;1.27;;;;;;;;;;5015929;28;20045;-63
2023/03/07 12:13:33;;;;;;;9.13;1.63;;;;;;;;;;5016345;28;20130;-63
2023/03/07 12:16:08;;;;;;;5.93;1.60;;;;;;;;;;5082883;28;20387;-62
2023/03/07 12:18:47;;;;;;;8.47;1.90;;;;;;;;;;5014981;28;20106;-62
2023/03/07 12:21:13;;;;;;;8.10;1.50;;;;;;;;;;5015287;28;20113;-62
2023/03/07 12:23:41;;;;;;;8.37;1.67;;;;;;;;;;5017256;28;20148;-62
2023/03/07 12:26:16;;;;;;;6.60;1.83;;;;;;;;;;5014564;28;20041;-62
2023/03/07 12:28:45;;;;;;;9.17;2.40;;;;;;;;;;5010805;28;20057;-62
2023/03/07 12:31:37;;;;;;;4.90;1.50;;;;;;;;;;5015625;28;20054;-62
2023/03/07 12:34:05;;;;;;;5.87;1.50;;;;;;;;;;5015881;28;20517;-62
2023/03/07 12:36:52;;;;;;;8.30;2.40;;;;;;;;;;5014000;28;20382;-62
2023/03/07 12:39:37;;;;;;;8.80;2.83;;;;;;;;;;5015457;28;20181;-63
2023/03/07 12:42:10;;;;;;;9.93;2.87;;;;;;;;;;5015677;28;20053;-62
2023/03/07 12:44:44;;;;;;;14.90;2.60;;;;;;;;;;5018986;28;20094;-62
2023/03/07 12:47:11;;;;;;;9.97;1.93;;;;;;;;;;5014166;28;20099;-62
2023/03/07 12:49:48;;;;;;;9.77;2.80;;;;;;;;;;5015002;28;20049;-62
2023/03/07 12:52:29;;;;;;;9.40;2.50;;;;;;;;;;5013837;28;20046;-62
2023/03/07 12:54:57;;;;;;;4.83;1.53;;;;;;;;;;5013809;28;20568;-62
2023/03/07 12:57:29;;;;;;;5.57;0.90;;;;;;;;;;5013205;28;20132;-62
2023/03/07 12:59:57;;;;;;;4.97;1.20;;;;;;;;;;5014082;28;20060;-61
2023/03/07 13:02:26;;;;;;;4.10;0.83;;;;;;;;;;5010822;28;20053;-62
2023/03/07 13:04:52;;;;;;;5.70;0.70;;;;;;;;;;5017560;28;20050;-62
2023/03/07 13:07:21;;;;;;;7.53;1.13;;;;;;;;;;5017576;28;20045;-61
2023/03/07 13:09:52;;;;;;;4.90;0.90;;;;;;;;;;5017046;28;20098;-61
2023/03/07 13:12:23;;;;;;;4.30;0.93;;;;;;;;;;5010634;28;20057;-61
2023/03/07 13:15:07;;;;;;;6.30;1.00;;;;;;;;;;5011145;28;20041;-61
2023/03/07 13:17:37;;;;;;;5.40;1.30;;;;;;;;;;5010662;28;20577;-61
2023/03/07 13:20:17;;;;;;;4.77;1.73;;;;;;;;;;5010079;28;20141;-61
2023/03/07 13:22:43;;;;;;;4.80;0.73;;;;;;;;;;5015570;28;20049;-61
2023/03/07 13:25:21;;;;;;;7.87;1.60;;;;;;;;;;5015886;28;20049;-61
2023/03/07 13:27:50;;;;;;;6.93;1.23;;;;;;;;;;5010280;28;20080;-61
2023/03/07 13:30:18;;;;;;;5.33;1.10;;;;;;;;;;5009899;28;20513;-61
2023/03/07 13:32:50;;;;;;;5.33;1.20;;;;;;;;;;5010370;28;20165;-61
2023/03/07 13:35:37;;;;;;;2.87;1.00;;;;;;;;;;5016194;28;20041;-61
2023/03/07 13:38:22;;;;;;;7.53;0.90;;;;;;;;;;5015714;28;20061;-61
2023/03/07 13:40:56;;;;;;;7.90;1.30;;;;;;;;;;5016167;28;20054;-61
2023/03/07 13:43:22;;;;;;;7.30;1.30;;;;;;;;;;5009750;28;20046;-61
2023/03/07 13:45:52;;;;;;;7.87;1.77;;;;;;;;;;5014562;28;20045;-61
2023/03/07 13:48:27;;;;;;;6.83;1.07;;;;;;;;;;5021184;28;20057;-61
2023/03/07 13:50:53;;;;;;;9.47;1.30;;;;;;;;;;5019224;28;20060;-61
2023/03/07 13:53:21;;;;;;;5.57;1.27;;;;;;;;;;5023981;28;20527;-61
2023/03/07 13:55:52;;;;;;;6.87;0.97;;;;;;;;;;5024233;28;20045;-61
2023/03/07 13:58:18;;;;;;;6.37;1.80;;;;;;;;;;5021678;28;20800;-61
2023/03/07 14:00:50;;;;;;;8.83;1.30;;;;;;;;;;5022346;28;20395;-61
2023/03/07 14:03:27;;;;;;;6.83;1.07;;;;;;;;;;5022431;28;20049;-61
2023/03/07 14:05:54;;;;;;;6.93;1.40;;;;;;;;;;5021040;28;20095;-61
2023/03/07 14:08:23;;;;;;;5.77;1.10;;;;;;;;;;5021841;28;20082;-61
2023/03/07 14:10:49;;;;;;;10.30;1.87;;;;;;;;;;5021214;28;20049;-60
2023/03/07 14:13:33;;;;;;;6.60;1.30;;;;;;;;;;5018907;28;20050;-61
2023/03/07 14:15:59;;;;;;;4.10;0.97;;;;;;;;;;5012278;28;20417;-60
2023/03/07 14:18:25;;;;;;;8.20;1.20;;;;;;;;;;5012033;28;20060;-61
2023/03/07 14:20:51;;;;;;;7.67;1.43;;;;;;;;;;5012108;28;20050;-61
2023/03/07 14:23:17;;;;;;;10.03;1.23;;;;;;;;;;5011774;28;20140;-61
2023/03/07 14:25:48;;;;;;;15.83;2.97;;;;;;;;;;5014462;28;20132;-60
2023/03/07 14:28:19;;;;;;;5.10;1.00;;;;;;;;;;5020529;28;20034;-60
2023/03/07 14:30:55;;;;;;;5.07;1.30;;;;;;;;;;5020850;28;20065;-60
2023/03/07 14:33:28;;;;;;;7.47;1.40;;;;;;;;;;5020859;28;20057;-61
2023/03/07 14:35:54;;;;;;;8.13;1.45;;;;;;;;;;5020076;28;20076;-60
2023/03/07 14:38:22;;;;;;;4.30;0.87;;;;;;;;;;5020339;28;20045;-60
2023/03/07 14:40:48;;;;;;;5.27;1.33;;;;;;;;;;5021974;28;20050;-60
2023/03/07 14:43:14;;;;;;;6.43;1.43;;;;;;;;;;5022275;28;20081;-60